createdAt,value
2017-10-25T00:00:14.718Z,23.2
2017-10-25T00:01:16.880Z,23.1
2017-10-25T00:02:19.047Z,23.1
2017-10-25T00:03:20.866Z,23.1
2017-10-25T00:04:23.029Z,23.2
2017-10-25T00:05:25.192Z,23.2
2017-10-25T00:06:27.369Z,23.1
2017-10-25T00:07:29.156Z,23.1
2017-10-25T00:08:30.977Z,23.1
2017-10-25T00:09:33.140Z,23.1
2017-10-25T00:10:35.302Z,23.2
2017-10-25T00:11:37.118Z,23.2
2017-10-25T00:12:39.280Z,23.1
2017-10-25T00:13:40.734Z,23.2
2017-10-25T00:14:42.552Z,23.2
2017-10-25T00:15:44.347Z,23.1
2017-10-25T00:16:46.513Z,23.2
2017-10-25T00:17:48.330Z,23.1
2017-10-25T00:18:50.129Z,23.2
2017-10-25T00:19:52.290Z,23.1
2017-10-25T00:20:53.746Z,23.1
2017-10-25T00:21:55.909Z,23.1
2017-10-25T00:22:57.395Z,23.1
2017-10-25T00:23:59.564Z,23.1
2017-10-25T00:25:01.013Z,23.2
2017-10-25T00:26:02.829Z,23.1
2017-10-25T00:27:04.626Z,23.2
2017-10-25T00:28:06.128Z,23.1
2017-10-25T00:29:07.602Z,23.1
2017-10-25T00:30:09.078Z,23.1
2017-10-25T00:31:10.551Z,23.2
2017-10-25T00:32:12.713Z,23.2
2017-10-25T00:33:14.181Z,23.2
2017-10-25T00:34:15.981Z,23.2
2017-10-25T00:35:17.433Z,23.1
2017-10-25T00:36:19.237Z,23.2
2017-10-25T00:37:20.691Z,23.1
2017-10-25T00:38:22.166Z,23.1
2017-10-25T00:39:24.329Z,23.1
2017-10-25T00:40:26.126Z,23.1
2017-10-25T00:41:27.925Z,23.2
2017-10-25T00:42:29.401Z,23.1
2017-10-25T00:43:31.235Z,23.2
2017-10-25T00:44:33.399Z,23.1
2017-10-25T00:45:35.562Z,23.1
2017-10-25T00:46:37.383Z,23.2
2017-10-25T00:47:38.492Z,23.1
2017-10-25T00:48:40.656Z,23.1
2017-10-25T00:49:42.140Z,23.1
2017-10-25T00:50:43.601Z,23.1
2017-10-25T00:51:45.395Z,23.2
2017-10-25T00:52:47.197Z,23.1
2017-10-25T00:53:48.995Z,23.1
2017-10-25T00:54:50.792Z,23.2
2017-10-25T00:55:52.957Z,23.1
2017-10-25T00:56:55.122Z,23.2
2017-10-25T00:57:56.598Z,23.1
2017-10-25T00:58:58.052Z,23.2
2017-10-25T00:59:59.875Z,23.1
2017-10-25T01:01:01.695Z,23.1
2017-10-25T01:02:03.859Z,23.2
2017-10-25T01:03:05.352Z,23.2
2017-10-25T01:04:07.173Z,23.1
2017-10-25T01:05:08.639Z,23.1
2017-10-25T01:06:10.100Z,23.1
2017-10-25T01:07:11.211Z,23.1
2017-10-25T01:08:12.708Z,23.1
2017-10-25T01:09:14.869Z,23.1
2017-10-25T01:10:16.345Z,23.1
2017-10-25T01:11:18.175Z,23.2
2017-10-25T01:12:19.994Z,23.1
2017-10-25T01:13:21.814Z,23.1
2017-10-25T01:14:23.979Z,23
2017-10-25T01:15:25.434Z,23.1
2017-10-25T01:16:27.237Z,23
2017-10-25T01:17:29.058Z,23.1
2017-10-25T01:18:31.222Z,23.1
2017-10-25T01:19:33.045Z,23.1
2017-10-25T01:20:35.211Z,23.1
2017-10-25T01:21:37.034Z,23.1
2017-10-25T01:22:38.861Z,23.1
2017-10-25T01:23:40.682Z,23.1
2017-10-25T01:24:42.841Z,23.1
2017-10-25T01:25:44.669Z,23.1
2017-10-25T01:26:46.836Z,23.1
2017-10-25T01:27:48.684Z,23.1
2017-10-25T01:28:50.843Z,23.1
2017-10-25T01:29:52.641Z,23.1
2017-10-25T01:30:54.461Z,23.1
2017-10-25T01:31:56.626Z,23.1
2017-10-25T01:32:58.446Z,23.2
2017-10-25T01:33:59.902Z,23.1
2017-10-25T01:35:01.378Z,23.1
2017-10-25T01:36:02.835Z,23.1
2017-10-25T01:37:04.316Z,23
2017-10-25T01:38:06.479Z,23.1
2017-10-25T01:39:08.300Z,23.1
2017-10-25T01:40:10.097Z,23.1
2017-10-25T01:41:11.919Z,23.1
2017-10-25T01:42:13.720Z,23.2
2017-10-25T01:43:15.885Z,23.1
2017-10-25T01:44:18.051Z,23.1
2017-10-25T01:45:19.524Z,23.1
2017-10-25T01:46:21.346Z,23.1
2017-10-25T01:47:23.171Z,23.1
2017-10-25T01:48:25.332Z,23.1
2017-10-25T01:49:27.165Z,23.1
2017-10-25T01:50:28.306Z,23.1
2017-10-25T01:51:30.126Z,23.1
2017-10-25T01:52:31.946Z,23.1
2017-10-25T01:53:34.121Z,23.1
2017-10-25T01:54:36.287Z,23.1
2017-10-25T01:55:38.095Z,23.1
2017-10-25T01:56:39.916Z,23.2
2017-10-25T01:57:41.736Z,23
2017-10-25T01:58:43.902Z,23.1
2017-10-25T01:59:45.377Z,23.1
2017-10-25T02:00:46.833Z,23.1
2017-10-25T02:01:48.998Z,23.1
2017-10-25T02:02:51.163Z,23.1
2017-10-25T02:03:52.618Z,23
2017-10-25T02:04:54.417Z,23.1
2017-10-25T02:05:56.244Z,23
2017-10-25T02:06:58.408Z,23.1
2017-10-25T02:07:59.544Z,23.1
2017-10-25T02:09:01.707Z,23.1
2017-10-25T02:10:03.529Z,23.1
2017-10-25T02:11:05.007Z,23.1
2017-10-25T02:12:06.828Z,23
2017-10-25T02:13:08.627Z,23.1
2017-10-25T02:14:10.795Z,23
2017-10-25T02:15:12.616Z,23.1
2017-10-25T02:16:14.779Z,23.1
2017-10-25T02:17:16.239Z,23.1
2017-10-25T02:18:17.698Z,23
2017-10-25T02:19:19.519Z,23
2017-10-25T02:20:21.339Z,23.1
2017-10-25T02:21:22.793Z,23.1
2017-10-25T02:22:24.269Z,23.2
2017-10-25T02:23:26.069Z,23
2017-10-25T02:24:28.235Z,23
2017-10-25T02:25:29.712Z,23.1
2017-10-25T02:26:31.169Z,23.1
2017-10-25T02:27:32.991Z,23.1
2017-10-25T02:28:34.811Z,23
2017-10-25T02:29:36.266Z,23.1
2017-10-25T02:30:38.430Z,23.1
2017-10-25T02:31:40.590Z,23.1
2017-10-25T02:32:42.070Z,23.1
2017-10-25T02:33:44.234Z,23.1
2017-10-25T02:34:46.413Z,23.1
2017-10-25T02:35:47.535Z,23
2017-10-25T02:36:49.362Z,23
2017-10-25T02:37:51.523Z,23
2017-10-25T02:38:53.345Z,23.1
2017-10-25T02:39:55.519Z,23.1
2017-10-25T02:40:56.968Z,23.1
2017-10-25T02:41:58.445Z,23.1
2017-10-25T02:43:00.611Z,23.1
2017-10-25T02:44:02.091Z,23
2017-10-25T02:45:04.250Z,23.1
2017-10-25T02:46:06.413Z,23
2017-10-25T02:47:07.874Z,23.1
2017-10-25T02:48:09.694Z,23
2017-10-25T02:49:11.854Z,23.1
2017-10-25T02:50:13.679Z,23
2017-10-25T02:51:15.846Z,23
2017-10-25T02:52:18.010Z,23
2017-10-25T02:53:20.177Z,23.1
2017-10-25T02:54:22.347Z,23.1
2017-10-25T02:55:23.448Z,23
2017-10-25T02:56:25.273Z,23.2
2017-10-25T02:57:27.437Z,23.1
2017-10-25T02:58:29.237Z,23
2017-10-25T02:59:31.403Z,23
2017-10-25T03:00:33.576Z,23
2017-10-25T03:01:35.735Z,23
2017-10-25T03:02:37.899Z,23
2017-10-25T03:03:39.714Z,23.1
2017-10-25T03:04:41.168Z,23.1
2017-10-25T03:05:42.988Z,23
2017-10-25T03:06:43.755Z,23
2017-10-25T03:07:45.919Z,23
2017-10-25T03:08:47.731Z,23
2017-10-25T03:09:49.198Z,23
2017-10-25T03:10:51.021Z,23
2017-10-25T03:11:52.820Z,23
2017-10-25T03:12:54.297Z,23.1
2017-10-25T03:13:56.462Z,23
2017-10-25T03:14:58.284Z,23
2017-10-25T03:16:00.105Z,23
2017-10-25T03:17:01.563Z,23.1
2017-10-25T03:18:03.728Z,23
2017-10-25T03:19:04.864Z,23
2017-10-25T03:20:07.032Z,23
2017-10-25T03:21:09.195Z,23.2
2017-10-25T03:22:10.698Z,23
2017-10-25T03:23:12.866Z,23
2017-10-25T03:24:15.026Z,23
2017-10-25T03:25:16.849Z,23.1
2017-10-25T03:26:19.014Z,23
2017-10-25T03:27:20.492Z,23
2017-10-25T03:28:22.312Z,23.1
2017-10-25T03:29:23.424Z,23.1
2017-10-25T03:30:24.901Z,23.1
2017-10-25T03:31:26.697Z,23
2017-10-25T03:32:28.859Z,23
2017-10-25T03:33:30.656Z,23.1
2017-10-25T03:34:32.479Z,23.1
2017-10-25T03:35:34.299Z,23
2017-10-25T03:36:35.783Z,23.2
2017-10-25T03:37:37.581Z,23.1
2017-10-25T03:38:39.407Z,23
2017-10-25T03:39:40.511Z,23
2017-10-25T03:40:42.331Z,22.9
2017-10-25T03:41:44.502Z,23
2017-10-25T03:42:46.319Z,23.1
2017-10-25T03:43:48.133Z,23
2017-10-25T03:44:49.594Z,23.1
2017-10-25T03:45:51.412Z,23
2017-10-25T03:46:53.231Z,23
2017-10-25T03:47:54.724Z,23
2017-10-25T03:48:56.901Z,23
2017-10-25T03:49:58.719Z,23
2017-10-25T03:50:59.829Z,23.1
2017-10-25T03:52:00.937Z,23
2017-10-25T03:53:02.414Z,23
2017-10-25T03:54:04.213Z,23.1
2017-10-25T03:55:05.671Z,23
2017-10-25T03:56:07.127Z,23
2017-10-25T03:57:08.269Z,23
2017-10-25T03:58:09.740Z,23
2017-10-25T03:59:11.561Z,23
2017-10-25T04:00:13.402Z,23
2017-10-25T04:01:15.221Z,22.9
2017-10-25T04:02:17.046Z,23.1
2017-10-25T04:03:18.862Z,23
2017-10-25T04:04:20.688Z,23.1
2017-10-25T04:05:22.850Z,23
2017-10-25T04:06:24.652Z,23
2017-10-25T04:07:26.500Z,23
2017-10-25T04:08:28.319Z,23
2017-10-25T04:09:30.512Z,23
2017-10-25T04:10:31.974Z,23
2017-10-25T04:11:33.421Z,22.9
2017-10-25T04:12:35.243Z,22.9
2017-10-25T04:13:37.412Z,23.1
2017-10-25T04:14:39.228Z,23
2017-10-25T04:15:41.051Z,23.2
2017-10-25T04:16:42.529Z,23
2017-10-25T04:17:44.694Z,23
2017-10-25T04:18:46.856Z,22.9
2017-10-25T04:19:48.678Z,23
2017-10-25T04:20:50.477Z,23
2017-10-25T04:21:52.300Z,23
2017-10-25T04:22:53.438Z,23
2017-10-25T04:23:55.602Z,22.9
2017-10-25T04:24:57.768Z,23
2017-10-25T04:25:59.947Z,23
2017-10-25T04:27:02.101Z,23
2017-10-25T04:28:03.937Z,23
2017-10-25T04:29:04.695Z,23
2017-10-25T04:30:06.492Z,23
2017-10-25T04:31:08.312Z,23
2017-10-25T04:32:10.132Z,23.1
2017-10-25T04:33:12.297Z,23.1
2017-10-25T04:34:14.115Z,23.1
2017-10-25T04:35:15.948Z,23.1
2017-10-25T04:36:17.767Z,23.1
2017-10-25T04:37:19.247Z,23.1
2017-10-25T04:38:21.405Z,23.1
2017-10-25T04:39:23.226Z,23.1
2017-10-25T04:40:25.028Z,23.1
2017-10-25T04:41:26.143Z,23
2017-10-25T04:42:27.943Z,23.1
2017-10-25T04:43:29.761Z,23.1
2017-10-25T04:44:31.560Z,23.1
2017-10-25T04:45:32.667Z,23.1
2017-10-25T04:46:34.486Z,23.2
2017-10-25T04:47:36.288Z,23.1
2017-10-25T04:48:37.744Z,23.2
2017-10-25T04:49:39.565Z,23.2
2017-10-25T04:50:41.728Z,23.2
2017-10-25T04:51:43.549Z,23.2
2017-10-25T04:52:45.382Z,23.1
2017-10-25T04:53:47.202Z,23.2
2017-10-25T04:54:48.312Z,23.1
2017-10-25T04:55:50.133Z,23.1
2017-10-25T04:56:51.953Z,23.1
2017-10-25T04:57:53.774Z,23.1
2017-10-25T04:58:55.940Z,23.2
2017-10-25T04:59:58.103Z,23.2
2017-10-25T05:01:00.266Z,23.2
2017-10-25T05:02:02.090Z,23.1
2017-10-25T05:03:04.250Z,23.1
2017-10-25T05:04:05.708Z,23.2
2017-10-25T05:05:07.874Z,23.2
2017-10-25T05:06:09.356Z,23.2
2017-10-25T05:07:11.189Z,23.2
2017-10-25T05:08:13.355Z,23.2
2017-10-25T05:09:15.176Z,23.1
2017-10-25T05:10:16.629Z,23.2
2017-10-25T05:11:18.429Z,23.2
2017-10-25T05:12:20.249Z,23.2
2017-10-25T05:13:22.416Z,23.2
2017-10-25T05:14:24.581Z,23.2
2017-10-25T05:15:26.739Z,23.2
2017-10-25T05:16:28.902Z,23.1
2017-10-25T05:17:31.068Z,23.2
2017-10-25T05:18:33.236Z,23.3
2017-10-25T05:19:35.056Z,23.2
2017-10-25T05:20:37.220Z,23.1
2017-10-25T05:21:38.701Z,23.2
2017-10-25T05:22:40.866Z,23.2
2017-10-25T05:23:43.037Z,23.2
2017-10-25T05:24:44.856Z,23.3
2017-10-25T05:25:46.333Z,23.2
2017-10-25T05:26:48.160Z,23.2
2017-10-25T05:27:50.323Z,23.2
2017-10-25T05:28:52.146Z,23.2
2017-10-25T05:29:53.621Z,23.2
2017-10-25T05:30:54.737Z,23.2
2017-10-25T05:31:56.903Z,23.2
2017-10-25T05:32:59.070Z,23.3
2017-10-25T05:34:00.866Z,23.2
2017-10-25T05:35:03.041Z,23.2
2017-10-25T05:36:05.196Z,23.3
2017-10-25T05:37:06.672Z,23.1
2017-10-25T05:38:08.834Z,23.2
2017-10-25T05:39:10.653Z,23.1
2017-10-25T05:40:12.476Z,23.2
2017-10-25T05:41:14.299Z,23.2
2017-10-25T05:42:16.140Z,23.2
2017-10-25T05:43:17.616Z,23.2
2017-10-25T05:44:19.439Z,23.2
2017-10-25T05:45:20.555Z,23.2
2017-10-25T05:46:22.008Z,23.2
2017-10-25T05:47:23.829Z,23.2
2017-10-25T05:48:25.311Z,23.1
2017-10-25T05:49:26.786Z,23.2
2017-10-25T05:50:28.242Z,23.2
2017-10-25T05:51:29.721Z,23.2
2017-10-25T05:52:31.890Z,23.2
2017-10-25T05:53:33.706Z,23.3
2017-10-25T05:54:35.869Z,23.2
2017-10-25T05:55:37.690Z,23.1
2017-10-25T05:56:39.511Z,23.2
2017-10-25T05:57:40.968Z,23.2
2017-10-25T05:58:43.130Z,23.2
2017-10-25T05:59:44.954Z,23.2
2017-10-25T06:00:46.755Z,23.3
2017-10-25T06:01:48.916Z,23.2
2017-10-25T06:02:50.736Z,23.2
2017-10-25T06:03:52.195Z,23.2
2017-10-25T06:04:54.428Z,23.2
2017-10-25T06:05:56.522Z,23.2
2017-10-25T06:06:58.337Z,23.2
2017-10-25T06:08:00.169Z,23.2
2017-10-25T06:09:01.998Z,23.2
2017-10-25T06:10:03.816Z,23.2
2017-10-25T06:11:05.638Z,23.2
2017-10-25T06:12:07.474Z,23.2
2017-10-25T06:13:09.006Z,23.2
2017-10-25T06:14:10.486Z,23.2
2017-10-25T06:15:12.308Z,23.2
2017-10-25T06:16:14.478Z,23.2
2017-10-25T06:17:16.648Z,23.2
2017-10-25T06:18:18.526Z,23.3
2017-10-25T06:19:20.617Z,23.3
2017-10-25T06:20:22.441Z,23.3
2017-10-25T06:21:23.562Z,23.2
2017-10-25T06:22:25.387Z,23.3
2017-10-25T06:23:27.214Z,23.3
2017-10-25T06:24:29.388Z,23.3
2017-10-25T06:25:31.555Z,23.3
2017-10-25T06:26:33.507Z,23.3
2017-10-25T06:27:34.973Z,23.3
2017-10-25T06:28:36.796Z,23.3
2017-10-25T06:29:38.264Z,23.3
2017-10-25T06:30:40.090Z,23.2
2017-10-25T06:31:41.907Z,23.2
2017-10-25T06:32:43.735Z,23.3
2017-10-25T06:33:45.907Z,23.3
2017-10-25T06:34:47.708Z,23.2
2017-10-25T06:35:49.917Z,23.3
2017-10-25T06:36:51.378Z,23.3
2017-10-25T06:37:53.203Z,23.3
2017-10-25T06:38:55.371Z,23.3
2017-10-25T06:39:56.501Z,23.2
2017-10-25T06:40:57.626Z,23.3
2017-10-25T06:41:59.793Z,23.3
2017-10-25T06:43:01.589Z,23.3
2017-10-25T06:44:03.758Z,23.3
2017-10-25T06:45:05.242Z,23.2
2017-10-25T06:46:07.413Z,23.4
2017-10-25T06:47:08.894Z,23.3
2017-10-25T06:48:10.823Z,23.3
2017-10-25T06:49:12.667Z,23.3
2017-10-25T06:50:14.180Z,23.3
2017-10-25T06:51:15.665Z,23.3
2017-10-25T06:52:17.836Z,23.2
2017-10-25T06:53:20.013Z,23.3
2017-10-25T06:54:22.185Z,23.3
2017-10-25T06:55:23.305Z,23.3
2017-10-25T06:56:24.423Z,23.3
2017-10-25T06:57:26.593Z,23.2
2017-10-25T06:58:27.718Z,23.3
2017-10-25T06:59:29.198Z,23.3
2017-10-25T07:00:31.024Z,23.3
2017-10-25T07:01:33.202Z,23.3
2017-10-25T07:02:35.029Z,23.3
2017-10-25T07:03:37.201Z,23.3
2017-10-25T07:04:38.663Z,23.3
2017-10-25T07:05:40.149Z,23.3
2017-10-25T07:06:41.631Z,23.3
2017-10-25T07:07:43.461Z,23.3
2017-10-25T07:08:45.310Z,23.3
2017-10-25T07:09:46.810Z,23.3
2017-10-25T07:10:48.324Z,23.3
2017-10-25T07:11:50.151Z,23.2
2017-10-25T07:12:52.322Z,23.3
2017-10-25T07:13:54.596Z,23.3
2017-10-25T07:14:56.074Z,23.3
2017-10-25T07:15:57.540Z,23.3
2017-10-25T07:16:58.995Z,23.2
2017-10-25T07:18:00.479Z,23.3
2017-10-25T07:19:02.284Z,23.3
2017-10-25T07:20:04.121Z,23.3
2017-10-25T07:21:06.287Z,23.3
2017-10-25T07:22:07.755Z,23.2
2017-10-25T07:23:08.873Z,23.3
2017-10-25T07:24:10.336Z,23.4
2017-10-25T07:25:12.162Z,23.3
2017-10-25T07:26:13.980Z,23.3
2017-10-25T07:27:15.788Z,23.3
2017-10-25T07:28:17.958Z,23.3
2017-10-25T07:29:20.126Z,23.3
2017-10-25T07:30:22.296Z,23.3
2017-10-25T07:31:24.120Z,23.3
2017-10-25T07:32:26.289Z,23.3
2017-10-25T07:33:28.115Z,23.4
2017-10-25T07:34:30.288Z,23.3
2017-10-25T07:35:32.466Z,23.4
2017-10-25T07:36:34.637Z,23.3
2017-10-25T07:37:36.093Z,23.3
2017-10-25T07:38:37.574Z,23.3
2017-10-25T07:39:39.031Z,23.2
2017-10-25T07:40:40.484Z,23.3
2017-10-25T07:41:42.314Z,23.3
2017-10-25T07:42:44.136Z,23.3
2017-10-25T07:43:45.960Z,23.3
2017-10-25T07:44:47.800Z,23.3
2017-10-25T07:45:49.267Z,23.3
2017-10-25T07:46:50.868Z,23.2
2017-10-25T07:47:53.039Z,23.3
2017-10-25T07:48:54.856Z,23.3
2017-10-25T07:49:56.861Z,23.3
2017-10-25T07:50:58.839Z,23.2
2017-10-25T07:52:01.074Z,23.3
2017-10-25T07:53:02.775Z,23.3
2017-10-25T07:54:04.992Z,23.3
2017-10-25T07:55:06.926Z,23.3
2017-10-25T07:56:08.734Z,23.3
2017-10-25T07:57:10.906Z,23.3
2017-10-25T07:58:12.839Z,23.4
2017-10-25T07:59:15.222Z,23.4
2017-10-25T08:00:17.398Z,23.4
2017-10-25T08:01:18.533Z,23.4
2017-10-25T08:02:19.686Z,23.4
2017-10-25T08:03:20.805Z,23.4
2017-10-25T08:04:22.348Z,23.3
2017-10-25T08:05:23.824Z,23.4
2017-10-25T08:06:24.964Z,23.4
2017-10-25T08:07:26.480Z,23.3
2017-10-25T08:08:28.678Z,23.4
2017-10-25T08:09:30.267Z,23.5
2017-10-25T08:10:31.723Z,23.5
2017-10-25T08:11:33.910Z,23.4
2017-10-25T08:12:35.736Z,23.4
2017-10-25T08:13:37.588Z,23.4
2017-10-25T08:14:39.072Z,23.5
2017-10-25T08:15:41.243Z,23.4
2017-10-25T08:16:43.077Z,23.4
2017-10-25T08:17:44.940Z,23.5
2017-10-25T08:18:46.759Z,23.4
2017-10-25T08:19:47.868Z,23.5
2017-10-25T08:20:49.375Z,23.5
2017-10-25T08:21:51.258Z,23.5
2017-10-25T08:22:53.225Z,23.5
2017-10-25T08:23:55.113Z,23.5
2017-10-25T08:24:56.928Z,23.5
2017-10-25T08:25:58.738Z,23.6
2017-10-25T08:27:00.217Z,23.4
2017-10-25T08:28:02.047Z,23.5
2017-10-25T08:29:03.869Z,23.5
2017-10-25T08:30:05.698Z,23.5
2017-10-25T08:31:07.865Z,23.5
2017-10-25T08:32:09.697Z,23.5
2017-10-25T08:33:11.513Z,23.5
2017-10-25T08:34:12.965Z,23.5
2017-10-25T08:35:14.769Z,23.5
2017-10-25T08:36:15.893Z,23.5
2017-10-25T08:37:17.408Z,23.5
2017-10-25T08:38:18.976Z,23.5
2017-10-25T08:39:20.440Z,23.5
2017-10-25T08:40:22.271Z,23.6
2017-10-25T08:41:24.473Z,23.6
2017-10-25T08:42:25.928Z,23.5
2017-10-25T08:43:28.104Z,23.6
2017-10-25T08:44:29.912Z,23.6
2017-10-25T08:45:32.096Z,23.6
2017-10-25T08:46:33.932Z,23.5
2017-10-25T08:47:34.690Z,23.6
2017-10-25T08:48:36.546Z,23.6
2017-10-25T08:49:38.000Z,23.6
2017-10-25T08:50:40.173Z,23.6
2017-10-25T08:51:41.637Z,23.6
2017-10-25T08:52:43.119Z,23.6
2017-10-25T08:53:44.579Z,23.7
2017-10-25T08:54:46.455Z,23.6
2017-10-25T08:55:48.620Z,23.6
2017-10-25T08:56:50.794Z,23.6
2017-10-25T08:57:52.598Z,23.6
2017-10-25T08:58:54.421Z,23.7
2017-10-25T08:59:55.592Z,23.6
2017-10-25T09:00:57.416Z,23.7
2017-10-25T09:01:58.909Z,23.6
2017-10-25T09:03:00.724Z,23.6
2017-10-25T09:04:02.183Z,23.6
2017-10-25T09:05:04.376Z,23.6
2017-10-25T09:06:06.001Z,23.7
2017-10-25T09:07:07.833Z,23.7
2017-10-25T09:08:09.999Z,23.7
2017-10-25T09:09:11.806Z,23.7
2017-10-25T09:10:13.976Z,23.7
2017-10-25T09:11:15.799Z,23.7
2017-10-25T09:12:17.257Z,23.7
2017-10-25T09:13:19.430Z,23.7
2017-10-25T09:14:21.291Z,23.7
2017-10-25T09:15:23.529Z,23.7
2017-10-25T09:16:25.012Z,23.7
2017-10-25T09:17:26.477Z,23.7
2017-10-25T09:18:27.937Z,23.7
2017-10-25T09:19:29.419Z,23.7
2017-10-25T09:20:30.882Z,23.7
2017-10-25T09:21:32.343Z,23.7
2017-10-25T09:22:34.168Z,23.7
2017-10-25T09:23:35.626Z,23.7
2017-10-25T09:24:36.392Z,23.7
2017-10-25T09:25:38.222Z,23.8
2017-10-25T09:26:40.049Z,23.7
2017-10-25T09:27:41.167Z,23.8
2017-10-25T09:28:43.338Z,23.8
2017-10-25T09:29:45.510Z,23.7
2017-10-25T09:30:46.993Z,23.8
2017-10-25T09:31:48.806Z,23.8
2017-10-25T09:32:50.979Z,23.7
2017-10-25T09:33:53.149Z,23.8
2017-10-25T09:34:54.969Z,23.8
2017-10-25T09:35:57.151Z,23.8
2017-10-25T09:36:59.396Z,23.8
2017-10-25T09:38:00.513Z,23.8
2017-10-25T09:39:02.316Z,23.8
2017-10-25T09:40:03.874Z,23.8
2017-10-25T09:41:05.711Z,23.8
2017-10-25T09:42:07.501Z,23.8
2017-10-25T09:43:09.439Z,23.8
2017-10-25T09:44:10.924Z,23.9
2017-10-25T09:45:12.745Z,23.9
2017-10-25T09:46:14.913Z,23.9
2017-10-25T09:47:16.028Z,23.9
2017-10-25T09:48:17.508Z,23.9
2017-10-25T09:49:19.682Z,23.9
2017-10-25T09:50:21.145Z,24
2017-10-25T09:51:22.970Z,23.9
2017-10-25T09:52:24.792Z,23.9
2017-10-25T09:53:26.276Z,24
2017-10-25T09:54:28.468Z,24
2017-10-25T09:55:30.393Z,23.9
2017-10-25T09:56:32.224Z,23.9
2017-10-25T09:57:34.392Z,23.9
2017-10-25T09:58:35.870Z,23.9
2017-10-25T09:59:37.327Z,23.9
2017-10-25T10:00:38.465Z,24
2017-10-25T10:01:40.635Z,24
2017-10-25T10:02:42.118Z,24.1
2017-10-25T10:03:43.945Z,24.1
2017-10-25T10:04:45.749Z,24.1
2017-10-25T10:05:47.575Z,24.1
2017-10-25T10:06:49.404Z,24.1
2017-10-25T10:07:51.575Z,24.1
2017-10-25T10:08:53.376Z,24
2017-10-25T10:09:55.201Z,24.1
2017-10-25T10:10:56.737Z,24
2017-10-25T10:11:58.542Z,24.1
2017-10-25T10:13:00.366Z,24.1
2017-10-25T10:14:02.166Z,24.1
2017-10-25T10:15:03.995Z,24.1
2017-10-25T10:16:05.839Z,24.1
2017-10-25T10:17:07.044Z,24.1
2017-10-25T10:18:09.210Z,24.1
2017-10-25T10:19:10.691Z,24.1
2017-10-25T10:20:12.156Z,24.2
2017-10-25T10:21:13.961Z,24.1
2017-10-25T10:22:16.129Z,24.1
2017-10-25T10:23:18.306Z,24.1
2017-10-25T10:24:20.131Z,24.1
2017-10-25T10:25:21.276Z,24.1
2017-10-25T10:26:23.447Z,24.1
2017-10-25T10:27:25.272Z,24.1
2017-10-25T10:28:27.102Z,24.1
2017-10-25T10:29:28.934Z,24.1
2017-10-25T10:30:30.069Z,24.1
2017-10-25T10:31:32.237Z,24.1
2017-10-25T10:32:34.064Z,24.1
2017-10-25T10:33:36.264Z,24.1
2017-10-25T10:34:38.104Z,24
2017-10-25T10:35:39.632Z,24.2
2017-10-25T10:36:41.478Z,24.1
2017-10-25T10:37:43.306Z,24.1
2017-10-25T10:38:45.132Z,24.2
2017-10-25T10:39:47.302Z,24.1
2017-10-25T10:40:48.785Z,24.1
2017-10-25T10:41:50.946Z,24.1
2017-10-25T10:42:53.118Z,24.2
2017-10-25T10:43:54.950Z,24.2
2017-10-25T10:44:56.775Z,24.1
2017-10-25T10:45:58.598Z,24.2
2017-10-25T10:47:00.084Z,24.1
2017-10-25T10:48:01.914Z,24.1
2017-10-25T10:49:03.374Z,24.1
2017-10-25T10:50:05.543Z,24.3
2017-10-25T10:51:07.712Z,24.1
2017-10-25T10:52:09.638Z,24.2
2017-10-25T10:53:11.814Z,24.1
2017-10-25T10:54:13.267Z,24.2
2017-10-25T10:55:15.090Z,24.1
2017-10-25T10:56:16.895Z,24.1
2017-10-25T10:57:18.353Z,24.2
2017-10-25T10:58:19.831Z,24.1
2017-10-25T10:59:21.702Z,24.1
2017-10-25T11:00:23.152Z,24.1
2017-10-25T11:01:24.633Z,24.1
2017-10-25T11:02:26.095Z,24.2
2017-10-25T11:03:27.553Z,24.2
2017-10-25T11:04:29.359Z,24.1
2017-10-25T11:05:31.527Z,24.2
2017-10-25T11:06:33.699Z,24.2
2017-10-25T11:07:35.184Z,24.3
2017-10-25T11:08:36.986Z,24.1
2017-10-25T11:09:38.816Z,24.3
2017-10-25T11:10:40.639Z,24.1
2017-10-25T11:11:42.491Z,24.1
2017-10-25T11:12:44.319Z,24.1
2017-10-25T11:13:45.088Z,24.2
2017-10-25T11:14:46.592Z,24.1
2017-10-25T11:15:48.417Z,24.2
2017-10-25T11:16:50.269Z,24.2
2017-10-25T11:17:52.073Z,24.1
2017-10-25T11:18:53.554Z,24.1
2017-10-25T11:19:55.382Z,24.1
2017-10-25T11:20:57.552Z,24.1
2017-10-25T11:21:59.378Z,24.1
2017-10-25T11:23:01.206Z,24.1
2017-10-25T11:24:03.066Z,24.2
2017-10-25T11:25:04.867Z,24.2
2017-10-25T11:26:06.690Z,24.2
2017-10-25T11:27:08.183Z,24.1
2017-10-25T11:28:10.010Z,24.1
2017-10-25T11:29:11.837Z,24.1
2017-10-25T11:30:13.315Z,24.2
2017-10-25T11:31:14.431Z,24.2
2017-10-25T11:32:15.899Z,24.2
2017-10-25T11:33:17.371Z,24.2
2017-10-25T11:34:18.829Z,24.2
2017-10-25T11:35:20.290Z,24.1
2017-10-25T11:36:22.462Z,24.2
2017-10-25T11:37:24.290Z,24.2
2017-10-25T11:38:26.460Z,24.2
2017-10-25T11:39:28.631Z,24.1
2017-10-25T11:40:30.114Z,24.2
2017-10-25T11:41:31.918Z,24.2
2017-10-25T11:42:33.723Z,24.2
2017-10-25T11:43:35.554Z,24.2
2017-10-25T11:44:37.393Z,24.3
2017-10-25T11:45:39.213Z,24.3
2017-10-25T11:46:41.383Z,24.2
2017-10-25T11:47:43.207Z,24.2
2017-10-25T11:48:44.688Z,24.2
2017-10-25T11:49:45.811Z,24.2
2017-10-25T11:50:47.640Z,24.2
2017-10-25T11:51:49.101Z,24.2
2017-10-25T11:52:50.928Z,24.2
2017-10-25T11:53:52.412Z,24.2
2017-10-25T11:54:54.236Z,24.3
2017-10-25T11:55:56.037Z,24.3
2017-10-25T11:56:57.533Z,24.2
2017-10-25T11:57:58.993Z,24.3
2017-10-25T11:59:00.819Z,24.2
2017-10-25T12:00:02.990Z,24.3
2017-10-25T12:01:04.808Z,24.2
2017-10-25T12:02:06.294Z,24.2
2017-10-25T12:03:08.474Z,24.2
2017-10-25T12:04:09.941Z,24.2
2017-10-25T12:05:11.053Z,24.3
2017-10-25T12:06:12.881Z,24.2
2017-10-25T12:07:15.049Z,24.3
2017-10-25T12:08:16.888Z,24.3
2017-10-25T12:09:19.052Z,24.2
2017-10-25T12:10:20.881Z,24.2
2017-10-25T12:11:23.046Z,24.3
2017-10-25T12:12:24.528Z,24.3
2017-10-25T12:13:25.643Z,24.2
2017-10-25T12:14:27.473Z,24.2
2017-10-25T12:15:29.281Z,24.2
2017-10-25T12:16:30.745Z,24.3
2017-10-25T12:17:32.201Z,24.3
2017-10-25T12:18:34.372Z,24.3
2017-10-25T12:19:35.863Z,24.3
2017-10-25T12:20:38.020Z,24.3
2017-10-25T12:21:39.842Z,24.2
2017-10-25T12:22:41.653Z,24.3
2017-10-25T12:23:43.824Z,24.3
2017-10-25T12:24:45.658Z,24.3
2017-10-25T12:25:47.826Z,24.3
2017-10-25T12:26:50.018Z,24.2
2017-10-25T12:27:51.469Z,24.3
2017-10-25T12:28:53.640Z,24.4
2017-10-25T12:29:55.468Z,24.3
2017-10-25T12:30:56.930Z,24.3
2017-10-25T12:31:58.750Z,24.2
2017-10-25T12:33:00.209Z,24.2
2017-10-25T12:34:02.384Z,24.3
2017-10-25T12:35:03.864Z,24.3
2017-10-25T12:36:05.328Z,24.3
2017-10-25T12:37:07.152Z,24.3
2017-10-25T12:38:08.609Z,24.2
2017-10-25T12:39:10.437Z,24.3
2017-10-25T12:40:11.899Z,24.3
2017-10-25T12:41:13.726Z,24.3
2017-10-25T12:42:15.555Z,24.3
2017-10-25T12:43:17.016Z,24.3
2017-10-25T12:44:19.186Z,24.3
2017-10-25T12:45:21.008Z,24.2
2017-10-25T12:46:22.488Z,24.3
2017-10-25T12:47:23.967Z,24.3
2017-10-25T12:48:26.132Z,24.3
2017-10-25T12:49:27.952Z,24.3
2017-10-25T12:50:29.774Z,24.2
2017-10-25T12:51:31.598Z,24.3
2017-10-25T12:52:33.768Z,24.3
2017-10-25T12:53:35.587Z,24.3
2017-10-25T12:54:37.759Z,24.3
2017-10-25T12:55:39.928Z,24.3
2017-10-25T12:56:41.749Z,24.3
2017-10-25T12:57:43.572Z,24.2
2017-10-25T12:58:45.396Z,24.4
2017-10-25T12:59:47.220Z,24.2
2017-10-25T13:00:49.022Z,24.3
2017-10-25T13:01:51.211Z,24.2
2017-10-25T13:02:53.377Z,24.3
2017-10-25T13:03:55.198Z,24.3
2017-10-25T13:04:57.370Z,24.3
2017-10-25T13:05:58.851Z,24.3
2017-10-25T13:07:00.658Z,24.2
2017-10-25T13:08:02.458Z,24.3
2017-10-25T13:09:04.286Z,24.2
2017-10-25T13:10:05.403Z,24.3
2017-10-25T13:11:06.856Z,24.2
2017-10-25T13:12:08.339Z,24.3
2017-10-25T13:13:10.506Z,24.3
2017-10-25T13:14:12.779Z,24.3
2017-10-25T13:15:14.235Z,24.3
2017-10-25T13:16:15.723Z,24.3
2017-10-25T13:17:17.546Z,24.3
2017-10-25T13:18:19.030Z,24.3
2017-10-25T13:19:21.198Z,24.3
2017-10-25T13:20:23.363Z,24.2
2017-10-25T13:21:24.847Z,24.3
2017-10-25T13:22:26.644Z,24.2
2017-10-25T13:23:28.524Z,24.2
2017-10-25T13:24:30.347Z,24.3
2017-10-25T13:25:31.827Z,24.2
2017-10-25T13:26:33.282Z,24.3
2017-10-25T13:27:35.101Z,24.3
2017-10-25T13:28:36.896Z,24.4
2017-10-25T13:29:39.067Z,24.2
2017-10-25T13:30:41.230Z,24.3
2017-10-25T13:31:42.709Z,24.4
2017-10-25T13:32:44.532Z,24.2
2017-10-25T13:33:46.352Z,24.4
2017-10-25T13:34:48.173Z,24.4
2017-10-25T13:35:49.998Z,24.3
2017-10-25T13:36:51.821Z,24.2
2017-10-25T13:37:53.645Z,24.3
2017-10-25T13:38:55.124Z,24.3
2017-10-25T13:39:56.583Z,24.2
2017-10-25T13:40:58.754Z,24.3
2017-10-25T13:42:00.924Z,24.4
2017-10-25T13:43:02.729Z,24.3
2017-10-25T13:44:04.893Z,24.3
2017-10-25T13:45:06.699Z,24.3
2017-10-25T13:46:08.864Z,24.4
2017-10-25T13:47:11.029Z,24.3
2017-10-25T13:48:12.509Z,24.3